createdAt,value
2023-03-11T00:02:31.381Z,3.50
2023-03-11T00:05:37.730Z,3.40
2023-03-11T00:08:41.768Z,3.50
2023-03-11T00:11:44.860Z,3.40
2023-03-11T00:14:47.848Z,3.30
2023-03-11T00:17:51.765Z,3.30
2023-03-11T00:20:56.281Z,3.30
2023-03-11T00:24:01.514Z,3.30
2023-03-11T00:27:04.614Z,3.40
2023-03-11T00:30:08.625Z,3.40
2023-03-11T00:33:14.796Z,3.50
2023-03-11T00:36:31.728Z,3.60
2023-03-11T00:39:35.709Z,3.80
2023-03-11T00:42:38.804Z,3.90
2023-03-11T00:45:42.402Z,3.80
2023-03-11T00:48:45.287Z,3.70
2023-03-11T00:51:48.479Z,3.70
2023-03-11T00:54:51.676Z,3.70
2023-03-11T00:57:56.607Z,3.70
2023-03-11T01:00:59.833Z,3.80
2023-03-11T01:04:03.522Z,3.80
2023-03-11T01:07:06.801Z,3.90
2023-03-11T01:10:11.231Z,4.10
2023-03-11T01:13:14.397Z,4.10
2023-03-11T01:16:17.118Z,4.20
2023-03-11T01:19:20.296Z,4.30
2023-03-11T01:22:23.484Z,4.30
2023-03-11T01:25:26.883Z,4.30
2023-03-11T01:28:29.766Z,4.40
2023-03-11T01:31:32.857Z,4.50
2023-03-11T01:34:36.466Z,4.60
2023-03-11T01:37:39.657Z,4.80
2023-03-11T01:40:45.932Z,5.00
2023-03-11T01:43:54.919Z,5.00
2023-03-11T01:47:00.241Z,4.80
2023-03-11T01:50:06.139Z,4.80
2023-03-11T01:53:10.054Z,4.80
2023-03-11T01:56:14.377Z,4.90
2023-03-11T01:59:22.071Z,5.00
2023-03-11T02:02:42.429Z,5.20
2023-03-11T02:05:47.197Z,5.50
2023-03-11T02:08:50.593Z,5.60
2023-03-11T02:11:54.923Z,5.60
2023-03-11T02:14:58.008Z,5.60
2023-03-11T02:18:06.629Z,5.70
2023-03-11T02:21:29.092Z,5.90
2023-03-11T02:24:44.346Z,6.10
2023-03-11T02:27:51.432Z,6.20
2023-03-11T02:30:56.572Z,6.30
2023-03-11T02:34:02.848Z,6.50
2023-03-11T02:37:11.872Z,6.60
2023-03-11T02:40:50.183Z,6.70
2023-03-11T02:43:54.207Z,6.70
2023-03-11T02:46:57.663Z,6.70
2023-03-11T02:50:00.893Z,6.70
2023-03-11T02:53:06.130Z,6.60
2023-03-11T02:56:09.120Z,6.60
2023-03-11T02:59:12.306Z,6.60
2023-03-11T03:02:15.500Z,6.50
2023-03-11T03:05:22.893Z,6.50
2023-03-11T03:08:26.081Z,6.50
2023-03-11T03:11:29.283Z,6.50
2023-03-11T03:14:33.183Z,6.40
2023-03-11T03:17:36.561Z,6.40
2023-03-11T03:20:39.680Z,6.50
2023-03-11T03:23:42.665Z,6.50
2023-03-11T03:26:45.876Z,6.50
2023-03-11T03:29:49.175Z,6.50
2023-03-11T03:32:52.348Z,6.50
2023-03-11T03:35:55.254Z,6.50
2023-03-11T03:38:59.957Z,6.60
2023-03-11T03:42:03.874Z,6.70
2023-03-11T03:45:08.702Z,6.70
2023-03-11T03:48:11.695Z,6.80
2023-03-11T03:51:15.504Z,6.80
2023-03-11T03:54:18.679Z,6.80
2023-03-11T03:57:22.199Z,6.80
2023-03-11T04:00:25.404Z,6.80
2023-03-11T04:03:29.134Z,6.90
2023-03-11T04:06:32.286Z,6.90
2023-03-11T04:09:35.790Z,6.90
2023-03-11T04:12:38.778Z,6.90
2023-03-11T04:15:41.972Z,6.80
2023-03-11T04:18:45.574Z,6.90
2023-03-11T04:21:48.462Z,6.80
2023-03-11T04:24:51.653Z,6.80
2023-03-11T04:27:54.943Z,6.80
2023-03-11T04:30:58.300Z,6.80
2023-03-11T04:34:01.944Z,6.80
2023-03-11T04:37:04.823Z,6.80
2023-03-11T04:40:09.768Z,6.90
2023-03-11T04:43:13.163Z,6.90
2023-03-11T04:46:16.413Z,6.90
2023-03-11T04:49:19.741Z,6.90
2023-03-11T04:52:23.354Z,6.90
2023-03-11T04:55:26.471Z,7.00
2023-03-11T04:58:29.841Z,7.00
2023-03-11T05:01:33.011Z,7.00
2023-03-11T05:04:36.310Z,6.90
2023-03-11T05:07:39.522Z,7.00
2023-03-11T05:10:43.129Z,7.00
2023-03-11T05:13:46.528Z,7.00
2023-03-11T05:16:49.416Z,7.00
2023-03-11T05:19:54.448Z,7.00
2023-03-11T05:22:57.739Z,7.00
2023-03-11T05:26:00.841Z,7.00
2023-03-11T05:29:03.925Z,7.00
2023-03-11T05:32:07.324Z,7.00
2023-03-11T05:35:10.614Z,7.00
2023-03-11T05:38:14.014Z,7.00
2023-03-11T05:41:17.308Z,6.90
2023-03-11T05:44:20.301Z,7.00
2023-03-11T05:47:23.493Z,7.00
2023-03-11T05:50:26.486Z,6.90
2023-03-11T05:53:29.392Z,6.90
2023-03-11T05:56:32.676Z,6.90
2023-03-11T05:59:35.758Z,6.90
2023-03-11T06:02:40.596Z,6.90
2023-03-11T06:05:47.363Z,6.90
2023-03-11T06:08:50.715Z,7.00
2023-03-11T06:11:54.260Z,6.90
2023-03-11T06:14:57.145Z,6.90
2023-03-11T06:18:00.356Z,6.90
2023-03-11T06:21:04.155Z,6.90
2023-03-11T06:24:07.849Z,6.90
2023-03-11T06:27:11.661Z,6.70
2023-03-11T06:30:15.668Z,6.50
2023-03-11T06:33:18.561Z,6.40
2023-03-11T06:36:22.057Z,6.40
2023-03-11T06:39:25.032Z,6.40
2023-03-11T06:42:28.276Z,6.30
2023-03-11T06:45:31.463Z,6.30
2023-03-11T06:48:34.793Z,6.20
2023-03-11T06:51:37.815Z,6.30
2023-03-11T06:54:40.802Z,6.30
2023-03-11T06:57:45.964Z,6.30
2023-03-11T07:00:50.185Z,6.40
2023-03-11T07:03:53.588Z,6.40
2023-03-11T07:07:00.540Z,6.50
2023-03-11T07:10:03.838Z,6.50
2023-03-11T07:13:07.026Z,6.50
2023-03-11T07:16:19.463Z,6.60
2023-03-11T07:19:22.834Z,6.70
2023-03-11T07:22:25.934Z,6.80
2023-03-11T07:25:29.145Z,6.90
2023-03-11T07:28:32.109Z,6.90
2023-03-11T07:31:36.900Z,6.90
2023-03-11T07:34:40.236Z,7.00
2023-03-11T07:37:43.436Z,7.10
2023-03-11T07:40:46.804Z,7.10
2023-03-11T07:43:49.617Z,7.10
2023-03-11T07:46:53.015Z,7.10
2023-03-11T07:49:57.306Z,7.00
2023-03-11T07:53:00.724Z,7.10
2023-03-11T07:56:04.320Z,7.20
2023-03-11T07:59:07.222Z,7.30
2023-03-11T08:02:11.279Z,7.50
2023-03-11T08:05:14.624Z,7.70
2023-03-11T08:08:18.434Z,7.90
2023-03-11T08:11:22.862Z,8.10
2023-03-11T08:14:26.249Z,8.20
2023-03-11T08:17:29.440Z,8.30
2023-03-11T08:20:33.145Z,8.30
2023-03-11T08:23:36.650Z,8.30
2023-03-11T08:26:39.951Z,8.40
2023-03-11T08:29:43.035Z,8.40
2023-03-11T08:32:46.095Z,8.50
2023-03-11T08:35:49.150Z,8.60
2023-03-11T08:38:53.067Z,8.70
2023-03-11T08:41:56.220Z,8.80
2023-03-11T08:44:59.315Z,8.80
2023-03-11T08:48:02.402Z,8.90
2023-03-11T08:51:13.591Z,8.90
2023-03-11T08:54:16.783Z,9.00
2023-03-11T08:57:19.869Z,9.00
2023-03-11T09:00:23.776Z,9.00
2023-03-11T09:03:26.777Z,9.10
2023-03-11T09:06:30.691Z,9.10
2023-03-11T09:09:33.768Z,9.20
2023-03-11T09:12:36.959Z,9.20
2023-03-11T09:15:40.461Z,9.40
2023-03-11T09:18:43.550Z,9.40
2023-03-11T09:21:46.951Z,9.40
2023-03-11T09:24:50.655Z,9.40
2023-03-11T09:27:53.645Z,9.60
2023-03-11T09:30:57.346Z,9.60
2023-03-11T09:34:00.542Z,9.70
2023-03-11T09:37:03.431Z,9.90
2023-03-11T09:40:07.442Z,10.20
2023-03-11T09:43:22.204Z,10.60
2023-03-11T09:46:44.795Z,11.30
2023-03-11T09:50:06.390Z,11.50
2023-03-11T09:53:16.125Z,11.60
2023-03-11T09:56:22.390Z,11.90
2023-03-11T09:59:32.241Z,12.40
2023-03-11T10:02:38.243Z,12.70
2023-03-11T10:05:44.775Z,13.00
2023-03-11T10:09:04.449Z,13.20
2023-03-11T10:12:19.520Z,12.40
2023-03-11T10:15:34.091Z,12.10
2023-03-11T10:18:51.820Z,11.60
2023-03-11T10:22:13.958Z,12.00
2023-03-11T10:25:36.297Z,12.00
2023-03-11T10:28:47.179Z,11.80
2023-03-11T10:32:17.675Z,11.10
2023-03-11T10:35:34.749Z,11.00
2023-03-11T10:38:47.960Z,11.40
2023-03-11T10:41:58.520Z,12.00
2023-03-11T10:45:01.718Z,11.90
2023-03-11T10:48:11.364Z,11.70
2023-03-11T10:51:27.353Z,12.10
2023-03-11T10:54:46.735Z,13.30
2023-03-11T10:57:49.710Z,13.70
2023-03-11T11:01:04.728Z,14.20
2023-03-11T11:04:33.844Z,13.80
2023-03-11T11:07:42.211Z,13.20
2023-03-11T11:10:54.211Z,13.20
2023-03-11T11:13:59.140Z,13.50
2023-03-11T11:17:02.311Z,13.30
2023-03-11T11:20:13.419Z,13.30
2023-03-11T11:23:37.807Z,13.10
2023-03-11T11:26:41.010Z,13.30
2023-03-11T11:29:45.117Z,13.90
2023-03-11T11:32:48.293Z,14.40
2023-03-11T11:35:54.899Z,14.40
2023-03-11T11:39:00.334Z,14.90
2023-03-11T11:42:04.158Z,14.90
2023-03-11T11:45:23.509Z,15.40
2023-03-11T11:48:35.206Z,15.70
2023-03-11T11:51:52.944Z,15.80
2023-03-11T11:55:03.199Z,15.70
2023-03-11T11:58:12.438Z,15.60
2023-03-11T12:01:54.020Z,15.80
2023-03-11T12:05:18.017Z,16.30
2023-03-11T12:08:32.979Z,15.90
2023-03-11T12:11:50.510Z,16.20
2023-03-11T12:14:59.435Z,17.20
2023-03-11T12:18:07.349Z,17.20
2023-03-11T12:21:24.010Z,17.40
2023-03-11T12:24:43.937Z,17.30
2023-03-11T12:28:37.827Z,16.90
2023-03-11T12:31:42.285Z,16.80
2023-03-11T12:34:46.818Z,16.40
2023-03-11T12:38:19.049Z,16.80
2023-03-11T12:41:40.374Z,16.90
2023-03-11T12:44:44.897Z,17.20
2023-03-11T12:48:07.851Z,17.60
2023-03-11T12:51:39.623Z,17.30
2023-03-11T12:54:44.465Z,17.70
2023-03-11T12:57:47.541Z,18.20
2023-03-11T13:01:07.121Z,17.90
2023-03-11T13:04:23.321Z,18.10
2023-03-11T13:07:47.613Z,18.40
2023-03-11T13:10:53.060Z,17.90
2023-03-11T13:14:15.092Z,17.90
2023-03-11T13:17:31.296Z,18.00
2023-03-11T13:20:43.747Z,17.80
2023-03-11T13:23:46.697Z,18.00
2023-03-11T13:27:01.326Z,17.70
2023-03-11T13:30:19.196Z,17.30
2023-03-11T13:33:25.790Z,17.40
2023-03-11T13:36:56.105Z,17.00
2023-03-11T13:40:14.228Z,16.90
2023-03-11T13:43:24.827Z,16.50
2023-03-11T13:46:36.107Z,16.50
2023-03-11T13:50:06.471Z,16.40
2023-03-11T13:53:17.821Z,17.10
2023-03-11T13:56:28.802Z,17.20
2023-03-11T13:59:36.501Z,17.40
2023-03-11T14:02:49.316Z,16.90
2023-03-11T14:06:05.718Z,15.40
2023-03-11T14:09:20.484Z,16.20
2023-03-11T14:12:23.472Z,16.90
2023-03-11T14:15:27.483Z,17.20
2023-03-11T14:18:41.017Z,16.30
2023-03-11T14:21:47.089Z,16.10
2023-03-11T14:24:51.207Z,15.90
2023-03-11T14:28:02.586Z,15.90
2023-03-11T14:31:06.701Z,15.90
2023-03-11T14:34:23.711Z,15.80
2023-03-11T14:37:34.590Z,15.50
2023-03-11T14:40:38.842Z,15.60
2023-03-11T14:43:46.707Z,15.80
2023-03-11T14:46:52.364Z,15.80
2023-03-11T14:49:56.174Z,16.20
2023-03-11T14:53:06.532Z,16.70
2023-03-11T14:56:21.862Z,16.40
2023-03-11T14:59:33.087Z,15.30
2023-03-11T15:02:52.963Z,15.10
2023-03-11T15:06:16.956Z,14.80
2023-03-11T15:09:26.602Z,14.90
2023-03-11T15:12:36.465Z,14.90
2023-03-11T15:15:39.750Z,14.90
2023-03-11T15:18:43.351Z,14.90
2023-03-11T15:21:49.211Z,14.10
2023-03-11T15:25:01.003Z,14.30
2023-03-11T15:28:24.689Z,14.00
2023-03-11T15:31:32.605Z,13.40
2023-03-11T15:34:35.882Z,13.70
2023-03-11T15:37:40.717Z,14.30
2023-03-11T15:40:58.854Z,14.00
2023-03-11T15:44:04.413Z,13.50
2023-03-11T15:47:15.176Z,13.90
2023-03-11T15:50:40.324Z,13.30
2023-03-11T15:53:54.639Z,13.70
2023-03-11T15:57:03.057Z,14.40
2023-03-11T16:00:15.976Z,14.50
2023-03-11T16:03:20.304Z,13.90
2023-03-11T16:06:24.490Z,11.70
2023-03-11T16:09:28.326Z,10.90
2023-03-11T16:12:32.133Z,10.10
2023-03-11T16:15:43.569Z,9.50
2023-03-11T16:18:47.319Z,8.70
2023-03-11T16:21:51.334Z,8.20
2023-03-11T16:24:55.342Z,7.80
2023-03-11T16:27:59.571Z,7.50
2023-03-11T16:31:03.419Z,7.30
2023-03-11T16:34:08.507Z,7.10
2023-03-11T16:37:16.828Z,6.90
2023-03-11T16:40:26.367Z,6.90
2023-03-11T16:43:31.006Z,6.80
2023-03-11T16:46:34.748Z,6.70
2023-03-11T16:49:38.210Z,6.60
2023-03-11T16:52:41.907Z,6.60
2023-03-11T16:55:46.738Z,6.50
2023-03-11T16:58:49.838Z,6.30
2023-03-11T17:01:54.496Z,6.30
2023-03-11T17:04:58.317Z,6.20
2023-03-11T17:08:04.951Z,6.00
2023-03-11T17:11:33.836Z,6.00
2023-03-11T17:14:37.655Z,6.00
2023-03-11T17:17:40.739Z,5.90
2023-03-11T17:20:44.548Z,5.90
2023-03-11T17:23:48.252Z,5.90
2023-03-11T17:26:51.852Z,5.90
2023-03-11T17:29:56.276Z,5.90
2023-03-11T17:32:59.818Z,5.80
2023-03-11T17:36:09.894Z,5.80
2023-03-11T17:39:14.461Z,5.80
2023-03-11T17:42:19.185Z,5.70
2023-03-11T17:45:23.308Z,5.70
2023-03-11T17:48:28.843Z,5.70
2023-03-11T17:51:33.576Z,5.60
2023-03-11T17:54:37.996Z,5.60
2023-03-11T17:57:45.565Z,5.50
2023-03-11T18:00:50.318Z,5.50
2023-03-11T18:03:54.715Z,5.40
2023-03-11T18:06:58.552Z,5.30
2023-03-11T18:10:02.146Z,5.30
2023-03-11T18:13:05.743Z,5.20
2023-03-11T18:16:15.489Z,5.10
2023-03-11T18:19:18.996Z,5.10
2023-03-11T18:22:22.294Z,5.00
2023-03-11T18:25:27.728Z,5.00
2023-03-11T18:28:32.772Z,5.00
2023-03-11T18:31:36.758Z,5.00
2023-03-11T18:34:40.894Z,5.00
2023-03-11T18:37:44.648Z,4.90
2023-03-11T18:40:48.621Z,4.90
2023-03-11T18:44:00.227Z,4.90
2023-03-11T18:47:04.534Z,4.90
2023-03-11T18:50:08.954Z,4.90
2023-03-11T18:53:13.167Z,4.80
2023-03-11T18:56:19.112Z,4.80
2023-03-11T18:59:23.754Z,4.70
2023-03-11T19:02:28.995Z,4.70
2023-03-11T19:05:33.109Z,4.70
2023-03-11T19:08:37.333Z,4.60
2023-03-11T19:11:41.342Z,4.50
2023-03-11T19:14:44.634Z,4.30
2023-03-11T19:18:00.642Z,4.20
2023-03-11T19:21:11.966Z,4.10
2023-03-11T19:24:15.216Z,4.00
2023-03-11T19:27:18.813Z,3.80
2023-03-11T19:30:23.028Z,3.80
2023-03-11T19:33:27.041Z,3.70
2023-03-11T19:36:30.545Z,3.60
2023-03-11T19:39:36.299Z,3.60
2023-03-11T19:42:39.953Z,3.50
2023-03-11T19:45:44.420Z,3.40
2023-03-11T19:48:48.368Z,3.40
2023-03-11T19:51:53.571Z,3.30
2023-03-11T19:54:57.065Z,3.30
2023-03-11T19:58:01.287Z,3.30
2023-03-11T20:01:04.888Z,3.30
2023-03-11T20:04:09.063Z,3.30
2023-03-11T20:07:13.232Z,3.20
2023-03-11T20:10:17.689Z,3.20
2023-03-11T20:13:22.876Z,3.10
2023-03-11T20:16:26.643Z,3.10
2023-03-11T20:19:30.111Z,3.20
2023-03-11T20:22:33.890Z,3.20
2023-03-11T20:25:39.967Z,3.20
2023-03-11T20:28:44.240Z,3.10
2023-03-11T20:31:48.483Z,3.10
2023-03-11T20:34:51.704Z,3.10
2023-03-11T20:37:55.607Z,3.00
2023-03-11T20:41:00.021Z,3.00
2023-03-11T20:44:05.093Z,2.90
2023-03-11T20:47:08.424Z,2.80
2023-03-11T20:50:15.536Z,2.80
2023-03-11T20:53:19.620Z,2.90
2023-03-11T20:56:26.280Z,2.80
2023-03-11T20:59:30.976Z,2.90
2023-03-11T21:02:35.752Z,2.90
2023-03-11T21:05:39.674Z,2.90
2023-03-11T21:08:43.208Z,2.90
2023-03-11T21:11:46.686Z,2.80
2023-03-11T21:14:50.597Z,2.70
2023-03-11T21:17:55.146Z,2.70
2023-03-11T21:20:59.234Z,2.60
2023-03-11T21:24:02.746Z,2.60
2023-03-11T21:27:06.030Z,2.60
2023-03-11T21:30:10.296Z,2.60
2023-03-11T21:33:14.700Z,2.50
2023-03-11T21:36:19.139Z,2.60
2023-03-11T21:39:22.895Z,2.50
2023-03-11T21:42:28.856Z,2.50
2023-03-11T21:45:32.074Z,2.40
2023-03-11T21:48:35.494Z,2.20
2023-03-11T21:51:38.741Z,2.20
2023-03-11T21:54:41.829Z,2.10
2023-03-11T21:57:44.924Z,2.00
2023-03-11T22:00:48.291Z,1.90
2023-03-11T22:03:51.995Z,1.80
2023-03-11T22:06:57.252Z,1.70
2023-03-11T22:10:00.743Z,1.70
2023-03-11T22:13:04.516Z,1.60
2023-03-11T22:16:08.010Z,1.60
2023-03-11T22:19:11.675Z,1.50
2023-03-11T22:22:14.514Z,1.40
2023-03-11T22:25:17.850Z,1.30
2023-03-11T22:28:20.640Z,1.40
2023-03-11T22:31:24.362Z,1.30
2023-03-11T22:34:27.537Z,1.20
2023-03-11T22:37:30.645Z,1.20
2023-03-11T22:40:35.665Z,1.10
2023-03-11T22:43:39.484Z,1.00
2023-03-11T22:46:42.561Z,1.00
2023-03-11T22:49:45.552Z,0.90
2023-03-11T22:52:48.542Z,0.80
2023-03-11T22:55:53.266Z,0.70
2023-03-11T22:58:56.152Z,0.70
2023-03-11T23:01:59.547Z,0.60
2023-03-11T23:05:02.436Z,0.50
2023-03-11T23:08:05.938Z,0.40
2023-03-11T23:11:12.920Z,0.30
2023-03-11T23:14:16.213Z,0.40
2023-03-11T23:17:19.405Z,0.30
2023-03-11T23:20:24.129Z,0.30
2023-03-11T23:23:27.534Z,0.20
2023-03-11T23:26:30.822Z,0.10
2023-03-11T23:29:34.020Z,0.00
2023-03-11T23:32:36.633Z,-0.10
2023-03-11T23:35:43.586Z,-0.10
2023-03-11T23:38:47.689Z,-0.10
2023-03-11T23:41:50.884Z,-0.10
2023-03-11T23:44:53.974Z,-0.10
2023-03-11T23:47:57.062Z,-0.10
2023-03-11T23:51:00.492Z,-0.20
2023-03-11T23:54:03.656Z,-0.20
2023-03-11T23:57:06.848Z,-0.20
